Number One, Kentucky
Current Conditions -  °F | °C
As of 5:56 AM on Monday 20 Oct 2014 (Local Time) from KEKQ Reporting Station
Haze Haze  
Wind Chill: 40°   Ceiling: Unl
Heat Index: 40°   Visibility: 1.2mi
Dew Point: 39°   Wind: 0mph
Humidity: 96%   Direction: NA
Pressure: 30.09"   Gusts: NA
Location:  36.8129°N, 84.8215°W
Report Text: KEKQ 200956Z AUTO 00000KT 1 1/4SM BR CLR 04/04 A3009 RMK AO2 T00440038 SLP197
Loading
Personal Weather Stations






























Interactive Weather Map New forecast layout! Learn more

10-Day Weather Forecast

Advertisements
Track Severe Weather on mobile